Time;durP1;ratioP1;P1;durP2;ratioP2;P2;SDS_P1;SDS_P2;PMS_P1;PMS_P2;Temp;Humidity;BMP_temperature;BMP_pressure;BME280_temperature;BME280_humidity;BME280_pressure;Samples;Min_cycle;Max_cycle;Signal;HPM_P1;HPM_P2
2021/11/03 00:00:18;;;;;;;4.30;1.38;;;19.50;49.40;;;;;;5050552;28;20660;-45
2021/11/03 00:02:48;;;;;;;3.40;1.40;;;19.50;49.20;;;;;;5051582;28;20239;-45
2021/11/03 00:05:19;;;;;;;4.22;1.50;;;19.50;49.10;;;;;;5062701;28;20277;-45
2021/11/03 00:07:53;;;;;;;2.70;1.38;;;19.50;48.90;;;;;;5055375;28;20227;-42
2021/11/03 00:10:24;;;;;;;3.40;1.35;;;19.60;49.00;;;;;;5060178;28;20199;-40
2021/11/03 00:12:54;;;;;;;3.65;1.40;;;19.60;48.90;;;;;;5057742;28;20199;-43
2021/11/03 00:15:25;;;;;;;3.05;1.20;;;19.60;49.10;;;;;;5051272;28;20253;-42
2021/11/03 00:17:58;;;;;;;3.15;1.35;;;19.60;49.10;;;;;;5059930;28;20234;-44
2021/11/03 00:20:31;;;;;;;4.65;1.27;;;19.70;49.20;;;;;;5051011;28;20249;-50
2021/11/03 00:23:03;;;;;;;5.28;1.33;;;19.70;49.10;;;;;;5050173;28;20200;-41
2021/11/03 00:25:37;;;;;;;3.80;1.35;;;19.70;49.00;;;;;;5050218;28;20895;-40
2021/11/03 00:28:09;;;;;;;3.83;1.23;;;19.80;49.10;;;;;;5064883;28;20221;-48
2021/11/03 00:30:39;;;;;;;4.00;1.50;;;19.80;49.10;;;;;;5050346;28;20265;-39
2021/11/03 00:33:10;;;;;;;3.28;1.27;;;19.80;49.10;;;;;;5049539;28;20239;-44
2021/11/03 00:35:42;;;;;;;3.60;1.50;;;19.80;49.10;;;;;;5049132;28;20199;-49
2021/11/03 00:38:15;;;;;;;3.22;1.38;;;19.80;49.00;;;;;;5049491;28;20203;-41
2021/11/03 00:40:47;;;;;;;4.93;1.55;;;19.80;48.90;;;;;;5049818;28;20231;-45
2021/11/03 00:43:19;;;;;;;3.63;1.30;;;19.80;48.80;;;;;;5050419;28;20223;-46
2021/11/03 00:45:50;;;;;;;4.47;1.48;;;19.80;48.60;;;;;;5062880;28;20248;-46
2021/11/03 00:48:21;;;;;;;4.70;1.33;;;19.90;48.40;;;;;;5054665;28;20617;-39
2021/11/03 00:50:51;;;;;;;4.60;1.27;;;19.90;48.30;;;;;;5050604;28;20199;-41
2021/11/03 00:53:24;;;;;;;4.80;1.80;;;19.90;48.30;;;;;;5050533;28;20219;-42
2021/11/03 00:55:55;;;;;;;5.15;1.50;;;19.90;48.30;;;;;;5050947;28;20736;-47
2021/11/03 00:58:25;;;;;;;4.07;1.35;;;19.90;48.40;;;;;;5052501;28;20633;-44
2021/11/03 01:00:58;;;;;;;3.65;1.67;;;19.90;48.40;;;;;;5049510;28;20614;-46
2021/11/03 01:03:29;;;;;;;3.05;1.20;;;19.90;48.30;;;;;;5049951;28;20219;-41
2021/11/03 01:05:59;;;;;;;4.30;1.58;;;19.90;48.30;;;;;;5050531;28;20667;-48
2021/11/03 01:08:32;;;;;;;3.13;1.30;;;19.90;48.20;;;;;;5049562;28;20242;-43
2021/11/03 01:11:03;;;;;;;3.08;1.50;;;20.00;48.30;;;;;;5059874;28;20195;-48
2021/11/03 01:13:34;;;;;;;5.78;1.58;;;20.00;48.20;;;;;;5051854;28;20222;-51
2021/11/03 01:16:04;;;;;;;5.38;1.45;;;20.00;48.20;;;;;;5052622;28;20242;-41
2021/11/03 01:18:36;;;;;;;2.78;1.30;;;20.00;48.20;;;;;;5048702;28;20238;-39
2021/11/03 01:21:07;;;;;;;4.15;1.60;;;20.00;48.00;;;;;;5050399;28;20246;-46
2021/11/03 01:23:39;;;;;;;2.92;1.40;;;20.00;47.80;;;;;;5050232;28;20307;-52
2021/11/03 01:26:09;;;;;;;5.82;1.65;;;20.00;47.70;;;;;;5060737;28;20637;-47
2021/11/03 01:28:40;;;;;;;5.43;1.60;;;20.00;47.70;;;;;;5055058;28;20673;-42
2021/11/03 01:31:10;;;;;;;4.65;1.67;;;20.10;47.80;;;;;;5050545;28;20234;-45
2021/11/03 01:33:42;;;;;;;4.10;1.58;;;20.00;47.80;;;;;;5049942;28;20305;-39
2021/11/03 01:36:13;;;;;;;6.50;1.50;;;20.10;47.90;;;;;;5053546;28;20226;-46
2021/11/03 01:38:45;;;;;;;5.43;1.80;;;20.10;47.80;;;;;;5059188;28;20283;-46
2021/11/03 01:41:15;;;;;;;4.28;1.20;;;20.10;47.80;;;;;;5050150;28;20294;-39
2021/11/03 01:43:48;;;;;;;4.53;1.60;;;20.10;47.90;;;;;;5050386;28;20765;-39
2021/11/03 01:46:26;;;;;;;3.25;1.50;;;20.10;47.90;;;;;;5049733;28;20295;-41
2021/11/03 01:49:02;;;;;;;3.13;1.60;;;20.10;47.80;;;;;;5051912;28;20603;-39
2021/11/03 01:51:38;;;;;;;4.50;1.58;;;20.10;47.70;;;;;;5035860;28;20241;-43
2021/11/03 01:54:13;;;;;;;4.10;1.52;;;20.10;47.40;;;;;;5052783;28;20250;-42
2021/11/03 01:56:44;;;;;;;5.93;1.63;;;20.10;47.20;;;;;;5053926;28;20230;-46
2021/11/03 01:59:21;;;;;;;5.05;1.98;;;20.10;47.20;;;;;;5054934;28;20286;-46
2021/11/03 02:01:51;;;;;;;4.68;1.90;;;20.10;47.10;;;;;;5054414;28;20691;-45
2021/11/03 02:04:23;;;;;;;4.07;1.50;;;20.10;46.90;;;;;;5053300;28;20318;-50
2021/11/03 02:06:54;;;;;;;5.43;1.52;;;20.10;46.90;;;;;;5062111;28;20233;-39
2021/11/03 02:09:27;;;;;;;4.88;1.58;;;20.10;47.00;;;;;;5056105;28;20899;-47
2021/11/03 02:11:57;;;;;;;4.75;1.75;;;20.20;47.00;;;;;;5053752;28;20286;-45
2021/11/03 02:14:28;;;;;;;5.10;1.85;;;20.20;47.10;;;;;;5061146;28;20258;-49
2021/11/03 02:16:59;;;;;;;5.60;1.67;;;20.20;47.20;;;;;;5061782;28;20290;-44
2021/11/03 02:19:31;;;;;;;5.40;1.65;;;20.20;47.10;;;;;;5057715;28;20730;-41
2021/11/03 02:22:07;;;;;;;5.90;1.40;;;20.10;46.90;;;;;;5064045;28;20289;-44
2021/11/03 02:24:48;;;;;;;4.47;1.50;;;20.10;46.90;;;;;;5052994;28;20310;-39
2021/11/03 02:27:22;;;;;;;5.25;1.60;;;20.10;46.90;;;;;;5057416;28;20308;-39
2021/11/03 02:29:52;;;;;;;6.40;1.58;;;20.10;46.80;;;;;;5055408;28;20242;-46
2021/11/03 02:32:25;;;;;;;4.68;1.55;;;20.20;46.80;;;;;;5067823;28;20230;-48
2021/11/03 02:34:56;;;;;;;5.13;1.65;;;20.20;47.00;;;;;;5054017;28;20697;-45
2021/11/03 02:37:45;;;;;;;3.17;1.30;;;20.20;47.00;;;;;;5063391;28;20294;-45
2021/11/03 02:40:29;;;;;;;5.30;1.65;;;20.20;46.90;;;;;;5036535;28;20282;-47
2021/11/03 02:43:05;;;;;;;4.25;1.42;;;20.20;46.80;;;;;;5037387;28;20227;-47
2021/11/03 02:45:41;;;;;;;4.25;1.58;;;20.20;47.20;;;;;;5035699;28;20306;-40
2021/11/03 02:48:12;;;;;;;6.20;1.83;;;20.20;46.60;;;;;;5051935;28;20242;-44
2021/11/03 02:50:59;;;;;;;5.00;2.00;;;20.20;46.70;;;;;;5053008;28;20195;-39
2021/11/03 02:53:30;;;;;;;4.60;1.48;;;20.20;46.40;;;;;;5051869;28;20298;-43
2021/11/03 02:56:00;;;;;;;4.63;1.85;;;20.20;46.10;;;;;;5054010;28;20286;-39
2021/11/03 02:58:33;;;;;;;4.75;1.40;;;20.20;45.80;;;;;;5051949;28;20611;-39
2021/11/03 03:01:16;;;;;;;4.22;1.58;;;20.20;45.90;;;;;;5051829;28;20302;-39
2021/11/03 03:03:47;;;;;;;7.47;2.17;;;20.20;46.00;;;;;;5066034;28;20245;-45
2021/11/03 03:06:24;;;;;;;5.75;1.95;;;20.20;46.80;;;;;;5056497;28;20258;-41
2021/11/03 03:08:56;;;;;;;5.28;1.73;;;20.20;46.30;;;;;;5055488;28;20290;-51
2021/11/03 03:11:28;;;;;;;4.57;1.83;;;20.20;46.30;;;;;;5052540;28;20282;-43
2021/11/03 03:14:01;;;;;;;4.53;1.55;;;20.20;46.30;;;;;;5061603;28;20254;-41
2021/11/03 03:16:32;;;;;;;5.35;1.73;;;20.20;46.50;;;;;;5066181;28;20241;-41
2021/11/03 03:19:03;;;;;;;3.10;1.15;;;20.20;46.40;;;;;;5059592;28;20238;-40
2021/11/03 03:21:34;;;;;;;4.65;2.03;;;20.20;46.30;;;;;;5051963;28;20195;-40
2021/11/03 03:24:06;;;;;;;5.53;1.60;;;20.20;46.20;;;;;;5054981;28;20314;-49
2021/11/03 03:26:37;;;;;;;5.65;1.98;;;20.20;46.10;;;;;;5064497;28;20322;-45
2021/11/03 03:29:10;;;;;;;6.05;1.77;;;20.20;46.10;;;;;;5051915;28;20230;-40
2021/11/03 03:31:40;;;;;;;3.80;1.75;;;20.20;45.90;;;;;;5051779;28;20223;-39
2021/11/03 03:34:13;;;;;;;4.38;1.55;;;20.20;45.90;;;;;;5067990;28;20251;-48
2021/11/03 03:36:43;;;;;;;7.05;1.65;;;20.20;45.90;;;;;;5058117;28;20233;-39
2021/11/03 03:39:16;;;;;;;4.50;1.73;;;20.20;45.70;;;;;;5050228;28;20282;-40
2021/11/03 03:41:49;;;;;;;5.50;1.95;;;20.20;45.70;;;;;;5052530;28;20210;-38
2021/11/03 03:44:22;;;;;;;6.28;1.70;;;20.20;45.60;;;;;;5051867;28;20314;-41
2021/11/03 03:46:52;;;;;;;4.50;1.52;;;20.20;45.70;;;;;;5060883;28;20290;-45
2021/11/03 03:49:23;;;;;;;3.90;1.45;;;20.20;45.60;;;;;;5054091;28;20321;-41
2021/11/03 03:51:54;;;;;;;4.82;1.60;;;20.20;45.60;;;;;;5051188;28;20227;-43
2021/11/03 03:54:25;;;;;;;6.70;1.60;;;20.20;45.80;;;;;;5050450;28;20306;-42
2021/11/03 03:56:55;;;;;;;3.70;1.48;;;20.20;45.90;;;;;;5051290;28;20234;-46
2021/11/03 03:59:28;;;;;;;5.25;1.45;;;20.20;46.00;;;;;;5051661;28;20278;-49
2021/11/03 04:01:58;;;;;;;4.60;1.45;;;20.20;46.00;;;;;;5050825;28;20239;-51
2021/11/03 04:04:29;;;;;;;4.18;1.50;;;20.20;45.80;;;;;;5052182;28;20255;-40
2021/11/03 04:06:59;;;;;;;6.63;1.75;;;20.20;45.40;;;;;;5049469;28;20298;-46
2021/11/03 04:09:30;;;;;;;4.63;1.80;;;20.20;45.00;;;;;;5049227;28;20230;-42
2021/11/03 04:12:00;;;;;;;6.15;1.73;;;20.30;44.60;;;;;;5050296;28;20614;-46
2021/11/03 04:14:33;;;;;;;5.57;1.70;;;20.20;44.30;;;;;;5050092;28;20285;-41
2021/11/03 04:17:03;;;;;;;3.80;1.50;;;20.30;44.10;;;;;;5061019;28;20253;-44
2021/11/03 04:19:34;;;;;;;4.28;1.40;;;20.30;44.00;;;;;;5066247;28;20199;-45
2021/11/03 04:22:04;;;;;;;3.53;1.33;;;20.30;43.80;;;;;;5065058;28;20241;-41
2021/11/03 04:24:35;;;;;;;5.72;2.05;;;20.30;43.80;;;;;;5065083;28;20322;-50
2021/11/03 04:27:06;;;;;;;5.13;1.60;;;20.40;43.50;;;;;;5054985;28;20231;-46
2021/11/03 04:29:41;;;;;;;5.00;1.50;;;20.30;43.40;;;;;;5051179;28;20231;-41
2021/11/03 04:32:12;;;;;;;4.60;1.55;;;20.40;43.20;;;;;;5051438;28;20626;-41
2021/11/03 04:34:42;;;;;;;5.70;1.40;;;20.40;43.00;;;;;;5050394;28;20314;-45
2021/11/03 04:37:13;;;;;;;5.32;1.33;;;20.40;42.90;;;;;;5052780;28;20227;-42
2021/11/03 04:39:44;;;;;;;4.75;1.23;;;20.40;42.90;;;;;;5050472;28;20289;-48
2021/11/03 04:42:14;;;;;;;7.38;1.50;;;20.40;42.90;;;;;;5050807;28;20290;-45
2021/11/03 04:44:46;;;;;;;4.55;1.58;;;20.50;43.00;;;;;;5050560;28;20223;-40
2021/11/03 04:47:17;;;;;;;4.60;1.40;;;20.50;43.00;;;;;;5056438;28;20286;-46
2021/11/03 04:49:47;;;;;;;4.63;1.33;;;20.50;42.80;;;;;;5049174;28;20258;-44
2021/11/03 04:52:18;;;;;;;7.78;1.50;;;20.50;42.60;;;;;;5049013;28;20231;-41
2021/11/03 04:54:48;;;;;;;5.30;2.03;;;20.50;42.40;;;;;;5050246;28;20250;-41
2021/11/03 04:57:20;;;;;;;4.68;1.60;;;20.60;42.40;;;;;;5054003;28;20245;-40
2021/11/03 04:59:53;;;;;;;5.30;1.42;;;20.60;42.30;;;;;;5050141;28;20235;-48
2021/11/03 05:02:24;;;;;;;4.47;1.45;;;20.60;42.40;;;;;;5050107;28;20683;-49
2021/11/03 05:04:55;;;;;;;5.55;1.83;;;20.60;42.40;;;;;;5050406;28;20310;-46
2021/11/03 05:07:25;;;;;;;5.20;1.80;;;20.60;42.60;;;;;;5050463;28;20294;-48
2021/11/03 05:09:56;;;;;;;3.85;1.60;;;20.70;42.60;;;;;;5050447;28;20260;-53
2021/11/03 05:12:26;;;;;;;6.60;1.52;;;20.60;42.70;;;;;;5050089;28;20227;-52
2021/11/03 05:14:59;;;;;;;5.25;1.95;;;20.70;42.90;;;;;;5049387;28;20784;-50
2021/11/03 05:17:29;;;;;;;4.70;1.70;;;20.60;42.90;;;;;;5058931;28;20230;-40
2021/11/03 05:19:59;;;;;;;8.07;1.77;;;20.70;43.30;;;;;;5037414;28;20722;-43
2021/11/03 05:22:31;;;;;;;4.03;1.30;;;20.70;43.10;;;;;;5050124;28;20195;-39
2021/11/03 05:25:02;;;;;;;3.03;1.10;;;20.70;42.90;;;;;;5049325;28;20302;-44
2021/11/03 05:27:33;;;;;;;7.50;2.00;;;20.70;43.00;;;;;;5057845;28;20233;-43
2021/11/03 05:30:05;;;;;;;4.53;1.35;;;20.70;43.20;;;;;;5050495;28;20223;-43
2021/11/03 05:32:35;;;;;;;5.70;1.70;;;20.70;43.00;;;;;;5049844;28;20294;-45
2021/11/03 05:35:06;;;;;;;5.43;1.83;;;20.70;43.80;;;;;;5049453;28;20253;-40
2021/11/03 05:37:37;;;;;;;5.68;1.80;;;20.70;43.30;;;;;;5050843;28;20230;-44
2021/11/03 05:40:10;;;;;;;3.45;1.27;;;20.70;43.20;;;;;;5050409;28;20242;-42
2021/11/03 05:42:40;;;;;;;3.17;1.45;;;20.70;43.30;;;;;;5049463;28;20288;-43
2021/11/03 05:45:13;;;;;;;4.47;1.63;;;20.70;43.30;;;;;;5058348;28;20318;-43
2021/11/03 05:47:44;;;;;;;6.82;1.75;;;20.70;43.30;;;;;;5056160;28;20231;-46
2021/11/03 05:50:17;;;;;;;4.43;1.40;;;20.70;43.10;;;;;;5055816;28;20237;-45
2021/11/03 05:52:47;;;;;;;4.22;1.48;;;20.70;43.20;;;;;;5058844;28;20231;-46
2021/11/03 05:55:18;;;;;;;3.08;1.40;;;20.70;42.90;;;;;;5049819;28;20219;-45
2021/11/03 05:57:49;;;;;;;4.18;1.33;;;20.70;43.50;;;;;;5053422;28;20636;-44
2021/11/03 06:00:24;;;;;;;4.13;1.40;;;20.70;42.90;;;;;;5063959;28;20228;-43
2021/11/03 06:02:55;;;;;;;4.68;1.63;;;20.70;42.90;;;;;;5049444;28;20226;-50
2021/11/03 06:05:26;;;;;;;4.07;1.40;;;20.70;43.00;;;;;;5048573;28;20992;-40
2021/11/03 06:07:58;;;;;;;5.25;1.27;;;20.70;43.00;;;;;;5053381;28;20286;-43
2021/11/03 06:10:33;;;;;;;3.13;1.58;;;20.70;43.00;;;;;;5048789;28;20252;-45
2021/11/03 06:13:05;;;;;;;2.47;1.10;;;20.70;43.10;;;;;;5051154;28;20286;-40
2021/11/03 06:15:37;;;;;;;3.50;1.25;;;20.70;43.20;;;;;;5048985;28;20775;-41
2021/11/03 06:18:08;;;;;;;3.08;1.30;;;20.70;43.10;;;;;;5046682;28;20196;-49
2021/11/03 06:20:39;;;;;;;2.90;1.27;;;20.70;43.20;;;;;;5050261;28;20633;-44
2021/11/03 06:23:10;;;;;;;3.38;1.40;;;20.70;43.10;;;;;;5049480;28;20239;-46
2021/11/03 06:25:40;;;;;;;3.83;1.40;;;20.60;43.00;;;;;;5050204;28;20251;-50
2021/11/03 06:28:11;;;;;;;3.35;1.45;;;20.60;43.10;;;;;;5049812;28;20235;-41
2021/11/03 06:30:43;;;;;;;4.85;1.40;;;20.60;43.20;;;;;;5054942;28;20226;-43
2021/11/03 06:33:14;;;;;;;3.58;1.35;;;20.60;43.30;;;;;;5059504;28;20286;-44
2021/11/03 06:36:00;;;;;;;3.53;1.40;;;20.60;43.40;;;;;;5052213;28;20659;-42
2021/11/03 06:38:31;;;;;;;4.72;1.27;;;20.60;43.50;;;;;;5057899;28;20192;-44
2021/11/03 06:41:03;;;;;;;5.78;1.48;;;20.60;43.50;;;;;;5054098;28;20227;-41
2021/11/03 06:43:34;;;;;;;3.85;1.35;;;20.60;43.60;;;;;;5053825;28;20261;-42
2021/11/03 06:46:07;;;;;;;3.00;1.20;;;20.60;43.70;;;;;;5053390;28;20254;-42
2021/11/03 06:48:37;;;;;;;2.58;1.20;;;20.60;43.70;;;;;;5048416;28;20570;-45
2021/11/03 06:51:08;;;;;;;3.72;1.40;;;20.60;43.70;;;;;;5051303;28;20565;-41
2021/11/03 06:53:39;;;;;;;2.92;1.27;;;20.60;43.70;;;;;;5052702;28;20258;-43
2021/11/03 06:56:10;;;;;;;4.43;1.33;;;20.60;43.80;;;;;;5052763;28;20238;-39
2021/11/03 06:58:40;;;;;;;3.00;1.30;;;20.60;43.80;;;;;;5057706;28;20241;-41
2021/11/03 07:01:13;;;;;;;3.25;1.38;;;20.60;43.80;;;;;;5054890;28;20633;-41
2021/11/03 07:04:19;;;;;;;3.53;1.50;;;20.60;43.90;;;;;;5052813;28;20314;-44
2021/11/03 07:06:50;;;;;;;2.67;1.20;;;20.60;44.10;;;;;;5051786;28;20254;-40
2021/11/03 07:09:20;;;;;;;3.55;1.38;;;20.60;44.10;;;;;;5061684;28;20231;-49
2021/11/03 07:11:54;;;;;;;3.15;1.00;;;20.60;44.20;;;;;;5057025;28;20231;-55
2021/11/03 07:14:24;;;;;;;2.45;1.27;;;20.50;44.20;;;;;;5052504;28;20593;-42
2021/11/03 07:16:57;;;;;;;3.63;1.30;;;20.50;44.40;;;;;;5052821;28;20282;-41
2021/11/03 07:19:27;;;;;;;3.25;1.25;;;20.50;44.60;;;;;;5050003;28;20257;-43
2021/11/03 07:21:58;;;;;;;2.80;1.20;;;20.50;44.60;;;;;;5043234;28;20231;-39
2021/11/03 07:24:28;;;;;;;3.42;1.27;;;20.40;44.60;;;;;;5052570;28;20686;-40
2021/11/03 07:26:59;;;;;;;2.78;0.98;;;20.40;44.60;;;;;;5052250;28;20302;-42
2021/11/03 07:29:30;;;;;;;5.35;1.33;;;20.40;44.70;;;;;;5052062;28;20226;-44
2021/11/03 07:32:02;;;;;;;2.90;0.88;;;20.40;45.30;;;;;;5068171;28;20261;-40
2021/11/03 07:34:33;;;;;;;1.55;1.00;;;20.40;44.60;;;;;;5035191;28;20298;-45
2021/11/03 07:37:03;;;;;;;4.43;1.40;;;20.40;44.60;;;;;;5065630;28;20230;-41
2021/11/03 07:39:34;;;;;;;2.72;1.02;;;20.40;44.70;;;;;;5052720;28;20230;-46
2021/11/03 07:42:05;;;;;;;2.63;1.17;;;20.30;44.70;;;;;;5050616;28;20237;-52
2021/11/03 07:44:35;;;;;;;4.22;1.42;;;20.30;44.80;;;;;;5049328;28;20219;-47
2021/11/03 07:47:08;;;;;;;2.33;1.20;;;20.30;44.90;;;;;;5050976;28;20318;-52
2021/11/03 07:49:38;;;;;;;3.10;1.58;;;20.30;44.90;;;;;;5062136;28;20237;-52
2021/11/03 07:52:09;;;;;;;2.25;0.98;;;20.30;45.00;;;;;;5050783;28;20639;-49
2021/11/03 07:54:40;;;;;;;2.58;1.15;;;20.30;45.10;;;;;;5049466;28;20247;-53
2021/11/03 07:57:11;;;;;;;2.08;1.02;;;20.30;45.80;;;;;;5050335;28;20199;-52
2021/11/03 07:59:42;;;;;;;2.67;1.30;;;20.30;45.30;;;;;;5055751;28;20289;-51
2021/11/03 08:02:14;;;;;;;3.03;1.40;;;20.20;45.30;;;;;;5063822;28;20234;-49
2021/11/03 08:04:45;;;;;;;2.67;1.30;;;20.20;45.40;;;;;;5051379;28;20247;-51
2021/11/03 08:07:15;;;;;;;3.13;1.30;;;20.20;45.40;;;;;;5050349;28;20302;-39
2021/11/03 08:09:46;;;;;;;3.13;1.30;;;20.20;45.50;;;;;;5052085;28;20235;-53
2021/11/03 08:12:19;;;;;;;2.25;0.98;;;20.20;45.60;;;;;;5050899;28;20192;-54
2021/11/03 08:14:49;;;;;;;2.15;1.08;;;20.20;45.60;;;;;;5067077;28;20226;-50
2021/11/03 08:17:25;;;;;;;3.33;1.10;;;20.10;45.50;;;;;;5051331;28;20290;-46
2021/11/03 08:20:03;;;;;;;2.92;1.00;;;20.10;45.50;;;;;;5057753;28;20202;-53
2021/11/03 08:22:34;;;;;;;3.25;1.23;;;20.10;45.50;;;;;;5050756;28;20203;-44
2021/11/03 08:25:05;;;;;;;2.60;1.20;;;20.10;45.50;;;;;;5050746;28;20223;-50
2021/11/03 08:27:35;;;;;;;3.10;1.25;;;20.00;45.60;;;;;;5062765;28;20231;-50
2021/11/03 08:30:08;;;;;;;2.78;1.10;;;20.00;45.50;;;;;;5062656;28;20238;-46
2021/11/03 08:32:45;;;;;;;2.13;1.10;;;20.00;45.60;;;;;;5054612;28;20238;-41
2021/11/03 08:35:18;;;;;;;3.72;1.10;;;20.00;45.60;;;;;;5051554;28;20273;-52
2021/11/03 08:37:50;;;;;;;2.22;1.13;;;19.90;45.50;;;;;;5057720;28;20629;-44
2021/11/03 08:40:22;;;;;;;2.22;1.00;;;19.90;45.60;;;;;;5060831;28;20266;-44
2021/11/03 08:42:58;;;;;;;2.13;1.10;;;19.90;45.60;;;;;;5051029;28;20330;-49
2021/11/03 08:45:35;;;;;;;2.75;0.95;;;19.90;45.60;;;;;;5050556;28;20203;-45
2021/11/03 08:48:08;;;;;;;1.80;1.10;;;19.90;45.60;;;;;;5050108;28;20289;-46
2021/11/03 08:50:42;;;;;;;2.97;1.25;;;19.90;45.70;;;;;;5055165;28;20226;-50
2021/11/03 08:53:14;;;;;;;3.25;1.02;;;19.80;45.70;;;;;;5050869;28;20206;-43
2021/11/03 08:55:45;;;;;;;2.97;1.20;;;19.80;45.80;;;;;;5050375;28;20886;-50
2021/11/03 08:58:17;;;;;;;2.83;0.98;;;19.80;45.80;;;;;;5049135;28;20230;-47
2021/11/03 09:00:48;;;;;;;3.28;1.30;;;19.80;45.90;;;;;;5060571;28;20237;-47
2021/11/03 09:03:20;;;;;;;2.10;1.25;;;19.80;45.90;;;;;;5050128;28;20306;-49
2021/11/03 09:05:51;;;;;;;1.95;1.00;;;19.80;46.00;;;;;;5050210;28;20910;-44
2021/11/03 09:08:22;;;;;;;2.65;1.20;;;19.70;45.90;;;;;;5049434;28;20258;-43
2021/11/03 09:10:56;;;;;;;2.67;1.10;;;19.70;45.90;;;;;;5061333;28;20253;-48
2021/11/03 09:13:28;;;;;;;1.65;0.98;;;19.70;45.90;;;;;;5053155;28;20227;-40
2021/11/03 09:15:59;;;;;;;2.88;1.00;;;19.70;45.90;;;;;;5050276;28;20293;-44
2021/11/03 09:18:34;;;;;;;2.45;1.10;;;19.70;45.90;;;;;;5049779;28;20196;-39
2021/11/03 09:21:08;;;;;;;2.78;1.23;;;19.60;45.90;;;;;;5053190;28;20286;-55
2021/11/03 09:23:38;;;;;;;3.70;1.10;;;19.60;46.00;;;;;;5056650;28;20305;-44
2021/11/03 09:26:09;;;;;;;1.75;1.00;;;19.60;46.00;;;;;;5058907;28;20302;-48
2021/11/03 09:28:39;;;;;;;1.85;1.10;;;19.60;46.60;;;;;;5048921;28;20242;-53
2021/11/03 09:31:10;;;;;;;2.17;0.90;;;19.60;46.00;;;;;;5054059;28;20594;-51
2021/11/03 09:33:43;;;;;;;3.08;1.10;;;19.50;46.10;;;;;;5050281;28;20261;-49
2021/11/03 09:36:18;;;;;;;3.63;1.17;;;19.50;46.00;;;;;;5058181;28;20231;-48
2021/11/03 09:38:49;;;;;;;3.08;1.20;;;19.50;46.10;;;;;;5032817;28;20301;-41
2021/11/03 09:41:24;;;;;;;2.53;1.20;;;19.50;46.10;;;;;;5064672;28;20230;-45
2021/11/03 09:43:58;;;;;;;1.85;1.20;;;19.50;46.20;;;;;;5050148;28;20258;-42
2021/11/03 09:46:31;;;;;;;2.30;1.08;;;19.50;46.20;;;;;;5050050;28;20258;-46
2021/11/03 09:49:19;;;;;;;2.08;1.02;;;19.50;46.20;;;;;;5049843;28;20629;-46
2021/11/03 09:51:52;;;;;;;3.80;1.50;;;19.40;46.20;;;;;;5049746;28;20191;-45
2021/11/03 09:54:26;;;;;;;1.88;1.00;;;19.40;46.80;;;;;;5045585;28;20255;-41
2021/11/03 09:57:02;;;;;;;2.80;1.00;;;19.40;46.80;;;;;;5038622;28;20487;-43
2021/11/03 09:59:39;;;;;;;1.55;1.00;;;19.40;46.20;;;;;;5052775;28;20336;-45
2021/11/03 10:02:28;;;;;;;2.25;1.20;;;19.40;46.20;;;;;;5050928;28;20248;-46
2021/11/03 10:05:21;;;;;;;2.75;1.00;;;19.40;46.30;;;;;;5050317;28;20219;-45
2021/11/03 10:07:55;;;;;;;1.90;0.93;;;19.30;46.30;;;;;;5050583;28;20521;-42
2021/11/03 10:10:31;;;;;;;3.53;1.00;;;19.30;46.30;;;;;;5053465;28;20238;-42
2021/11/03 10:13:03;;;;;;;2.67;1.10;;;19.30;46.30;;;;;;5053542;28;20199;-41
2021/11/03 10:15:35;;;;;;;2.10;1.10;;;19.30;46.40;;;;;;5039721;28;20204;-48
2021/11/03 10:18:21;;;;;;;2.40;1.10;;;19.30;46.40;;;;;;5048844;28;20277;-42
2021/11/03 10:21:15;;;;;;;1.95;1.05;;;19.20;46.30;;;;;;5053224;28;20238;-42
2021/11/03 10:23:55;;;;;;;2.38;1.10;;;19.20;46.40;;;;;;5052816;28;20253;-47
2021/11/03 10:26:27;;;;;;;2.22;1.08;;;19.20;46.40;;;;;;5053039;28;20255;-44
2021/11/03 10:29:12;;;;;;;2.20;1.02;;;19.20;46.40;;;;;;5053592;28;20665;-42
2021/11/03 10:31:45;;;;;;;2.40;1.10;;;19.20;46.40;;;;;;5053329;28;20290;-45
2021/11/03 10:34:25;;;;;;;2.72;0.90;;;19.20;46.40;;;;;;5052446;28;20251;-44
2021/11/03 10:37:15;;;;;;;1.67;0.93;;;19.20;46.50;;;;;;5053059;28;20282;-44
2021/11/03 10:39:57;;;;;;;2.08;0.93;;;19.20;46.50;;;;;;5063775;28;20234;-43
2021/11/03 10:42:31;;;;;;;1.67;1.10;;;19.10;46.50;;;;;;5056369;28;20199;-42
2021/11/03 10:45:21;;;;;;;2.80;1.05;;;19.10;46.50;;;;;;5061682;28;20798;-46
2021/11/03 10:47:53;;;;;;;2.40;1.20;;;19.10;46.50;;;;;;5055910;28;20262;-48
2021/11/03 10:50:39;;;;;;;2.17;1.27;;;19.10;46.60;;;;;;5052632;28;20235;-43
2021/11/03 10:53:32;;;;;;;2.10;0.93;;;19.10;46.60;;;;;;5062166;28;20207;-47
2021/11/03 10:56:08;;;;;;;1.60;0.85;;;19.10;46.60;;;;;;5053324;28;20231;-45
2021/11/03 10:58:53;;;;;;;2.75;1.30;;;19.10;46.60;;;;;;5048454;28;20235;-45
2021/11/03 11:01:32;;;;;;;2.00;1.38;;;19.00;46.60;;;;;;5052196;28;20235;-45
2021/11/03 11:04:06;;;;;;;2.78;1.27;;;19.00;46.60;;;;;;5060489;28;20252;-46
2021/11/03 11:06:40;;;;;;;1.50;0.90;;;19.00;46.60;;;;;;5057169;28;20257;-46
2021/11/03 11:09:26;;;;;;;2.20;1.20;;;19.00;46.70;;;;;;5052127;28;20309;-45
2021/11/03 11:12:00;;;;;;;2.13;1.10;;;19.00;46.80;;;;;;5051871;28;20305;-46
2021/11/03 11:14:35;;;;;;;3.35;1.10;;;19.00;46.70;;;;;;5052411;28;20250;-42
2021/11/03 11:17:12;;;;;;;1.52;1.00;;;18.90;46.70;;;;;;5052511;28;20812;-43
2021/11/03 11:19:58;;;;;;;2.13;1.00;;;18.90;46.70;;;;;;5050255;28;20714;-40
2021/11/03 11:22:42;;;;;;;2.00;1.10;;;18.90;46.70;;;;;;5051933;28;20223;-44
2021/11/03 11:25:20;;;;;;;2.33;1.13;;;18.90;46.80;;;;;;5051857;28;20664;-50
2021/11/03 11:28:20;;;;;;;2.00;0.90;;;18.90;46.80;;;;;;5052495;28;20641;-44
2021/11/03 11:30:57;;;;;;;1.92;1.10;;;18.90;46.90;;;;;;5049964;28;20254;-49
2021/11/03 11:33:31;;;;;;;2.33;1.10;;;18.80;46.80;;;;;;5049828;28;20238;-47
2021/11/03 11:36:21;;;;;;;2.47;1.10;;;18.80;46.90;;;;;;5051172;28;20609;-40
2021/11/03 11:39:04;;;;;;;1.65;1.00;;;18.80;46.90;;;;;;5051676;28;20299;-44
2021/11/03 11:41:42;;;;;;;2.28;1.05;;;18.80;46.90;;;;;;5052055;28;20274;-42
2021/11/03 11:44:21;;;;;;;3.13;1.30;;;18.80;46.90;;;;;;5051715;28;20250;-45
2021/11/03 11:46:52;;;;;;;1.75;1.00;;;18.80;46.90;;;;;;5052044;28;20251;-40
2021/11/03 11:49:25;;;;;;;1.40;0.82;;;18.80;47.00;;;;;;5051435;28;20253;-42
2021/11/03 11:51:58;;;;;;;1.50;0.90;;;18.70;47.00;;;;;;5051347;28;20235;-40
2021/11/03 11:54:38;;;;;;;2.88;1.10;;;18.70;47.00;;;;;;5051225;28;20306;-46
2021/11/03 11:57:30;;;;;;;2.47;1.05;;;18.70;47.00;;;;;;5050521;28;20280;-49
2021/11/03 12:00:25;;;;;;;2.15;1.23;;;18.70;47.00;;;;;;5051146;28;20230;-41
2021/11/03 12:03:27;;;;;;;1.98;1.38;;;18.70;47.00;;;;;;5051416;28;20199;-44
2021/11/03 12:06:11;;;;;;;1.42;1.05;;;18.70;47.10;;;;;;5049961;28;20203;-44
2021/11/03 12:09:18;;;;;;;2.50;1.10;;;18.60;47.00;;;;;;5051078;28;20261;-42
2021/11/03 12:12:23;;;;;;;3.10;1.13;;;18.60;47.10;;;;;;5049656;28;20207;-41
2021/11/03 12:14:57;;;;;;;2.72;1.27;;;18.60;47.10;;;;;;5050127;28;20624;-42
2021/11/03 12:17:58;;;;;;;2.58;1.33;;;18.60;47.10;;;;;;5051391;28;20239;-43
2021/11/03 12:20:54;;;;;;;1.98;1.02;;;18.50;47.00;;;;;;5050810;28;20199;-40
2021/11/03 12:23:45;;;;;;;1.38;0.90;;;18.50;47.10;;;;;;5032997;28;20216;-44
2021/11/03 12:26:41;;;;;;;2.53;1.10;;;18.60;47.10;;;;;;5050057;28;20231;-41
2021/11/03 12:29:35;;;;;;;1.67;0.93;;;18.50;47.10;;;;;;5036858;28;20281;-41
2021/11/03 12:32:22;;;;;;;5.20;1.15;;;18.50;47.10;;;;;;5050289;28;20286;-46
2021/11/03 12:34:53;;;;;;;1.40;0.90;;;18.50;47.10;;;;;;5050493;28;20258;-40
2021/11/03 12:37:31;;;;;;;3.70;1.13;;;18.50;47.10;;;;;;5050135;28;20287;-42
2021/11/03 12:40:21;;;;;;;1.83;0.90;;;18.40;47.10;;;;;;5050521;28;20191;-44
2021/11/03 12:43:12;;;;;;;3.03;1.23;;;18.40;47.20;;;;;;5050304;28;21434;-44
2021/11/03 12:45:52;;;;;;;1.63;1.15;;;18.40;47.20;;;;;;5050208;28;20234;-48
2021/11/03 12:48:27;;;;;;;2.38;1.10;;;18.40;47.20;;;;;;5049642;28;20277;-41
2021/11/03 12:50:57;;;;;;;2.22;1.20;;;18.40;47.20;;;;;;5049890;28;20816;-48
2021/11/03 12:53:30;;;;;;;1.88;0.80;;;18.30;47.20;;;;;;5050433;28;20250;-47
2021/11/03 12:56:03;;;;;;;1.88;1.02;;;18.30;47.20;;;;;;5050741;28;20207;-43
2021/11/03 12:58:41;;;;;;;2.47;1.08;;;18.30;47.30;;;;;;5048614;28;20286;-46
2021/11/03 13:01:22;;;;;;;1.35;0.93;;;18.30;47.30;;;;;;5032309;28;20231;-49
2021/11/03 13:03:59;;;;;;;1.50;0.93;;;18.20;47.20;;;;;;5059594;28;20517;-42
2021/11/03 13:06:33;;;;;;;1.30;0.93;;;18.20;47.20;;;;;;5048844;28;20281;-50
2021/11/03 13:09:05;;;;;;;1.92;1.02;;;18.20;47.20;;;;;;5049772;28;20258;-49
2021/11/03 13:11:37;;;;;;;1.30;0.80;;;18.20;47.20;;;;;;5065781;28;20280;-40
2021/11/03 13:14:18;;;;;;;1.77;0.90;;;18.20;47.20;;;;;;5050211;28;20254;-44
2021/11/03 13:16:51;;;;;;;1.55;0.90;;;18.20;47.30;;;;;;5049971;28;20231;-46
2021/11/03 13:19:27;;;;;;;1.73;1.10;;;18.10;47.30;;;;;;5047870;28;20818;-44
2021/11/03 13:21:59;;;;;;;2.42;1.25;;;18.10;47.30;;;;;;5049741;28;20238;-42
2021/11/03 13:24:34;;;;;;;2.35;1.10;;;18.10;47.30;;;;;;5049566;28;20255;-47